Date,TemperatureHighF,TemperatureAvgF,TemperatureLowF,DewpointHighF,DewpointAvgF,DewpointLowF,HumidityHigh,HumidityAvg,HumidityLow,PressureMaxIn,PressureMinIn,WindSpeedMaxMPH,WindSpeedAvgMPH,GustSpeedMaxMPH,PrecipitationSumIn
2013-8-1,87.8,73.9,64.1,61.1,56.9,50.8,89,57,34,30.04,29.86,15,1,15,0.01
2013-8-2,86.8,72.2,60.0,63.4,58.7,51.0,96,67,34,30.06,29.86,13,0,13,0.02
2013-8-3,91.5,74.7,58.2,61.9,56.9,50.7,96,60,27,30.04,29.86,11,0,11,0.02
2013-8-4,90.8,75.3,61.9,60.7,55.3,47.5,92,53,25,30.08,29.84,13,1,13,0.12
2013-8-5,90.2,72.6,60.3,61.9,56.9,47.0,94,63,30,30.05,29.84,14,1,18,0.00
2013-8-6,89.5,72.0,63.4,59.5,55.7,49.8,81,59,28,29.96,29.81,15,1,15,0.09
2013-8-7,85.0,70.0,57.7,59.0,55.7,53.7,89,63,36,29.97,29.85,11,1,11,0.00
2013-8-8,83.8,68.5,58.4,62.4,53.3,48.6,84,60,36,30.04,29.87,15,1,15,0.01
2013-8-9,83.7,67.5,50.4,52.9,48.1,40.6,89,54,25,30.14,30.00,15,0,15,0.00
2013-8-10,88.0,68.6,58.5,56.0,51.8,45.1,84,58,24,30.22,30.00,15,1,15,0.10
2013-8-11,85.5,69.4,53.4,55.2,51.4,45.9,92,57,28,30.19,29.97,8,0,8,0.00
2013-8-12,83.8,71.1,62.6,64.0,55.7,52.0,80,60,38,30.08,29.92,11,1,11,0.17
2013-8-13,87.5,70.2,55.4,59.5,53.2,44.6,88,59,24,30.11,29.96,16,0,16,0.00
2013-8-14,89.5,71.7,54.9,61.7,51.0,41.0,84,53,20,30.12,29.92,9,0,9,0.00
2013-8-15,93.9,74.0,53.7,57.0,48.1,36.2,86,46,14,30.10,29.90,9,0,11,0.00
2013-8-16,95.3,77.8,57.4,53.0,44.8,31.3,75,36,12,30.06,29.86,9,0,9,0.00
2013-8-17,94.3,77.7,56.2,51.5,44.8,38.6,67,34,17,30.04,29.80,9,0,9,0.00
2013-8-18,93.3,75.9,59.3,54.1,48.9,41.1,70,41,22,30.00,29.86,21,1,21,0.00
2013-8-19,93.3,75.3,58.0,58.2,52.0,46.9,83,48,22,30.02,29.83,8,0,8,0.01
2013-8-20,93.5,73.0,56.4,57.4,53.4,47.7,83,54,22,29.99,29.84,12,0,12,0.00
2013-8-21,92.1,75.1,56.9,57.2,53.1,48.2,80,50,25,30.03,29.85,13,1,14,0.01
2013-8-22,94.1,74.3,59.0,60.4,54.3,47.3,79,52,23,30.03,29.85,8,0,12,0.00
2013-8-23,90.3,71.0,50.2,53.2,47.9,40.5,82,49,20,30.07,29.86,16,1,16,0.00
2013-8-24,88.7,72.7,61.8,56.2,52.1,47.4,68,50,26,30.04,29.88,23,1,23,0.00
2013-8-25,86.0,73.2,62.5,58.9,55.6,52.3,80,56,36,30.11,30.00,11,0,11,0.00
2013-8-26,91.7,74.1,57.4,58.3,54.4,48.6,90,55,25,30.15,29.95,15,1,15,0.00
2013-8-27,91.5,74.7,56.1,55.4,50.6,44.5,79,46,26,30.06,29.84,10,0,10,0.00
2013-8-28,92.0,75.4,55.3,54.9,50.1,44.8,76,44,21,30.02,29.86,9,1,9,0.00
2013-8-29,93.4,77.1,62.4,55.5,51.9,47.6,67,43,22,30.06,29.88,12,1,12,0.00
2013-8-30,96.2,75.8,58.6,61.8,53.2,48.7,75,48,22,30.06,29.83,10,1,10,0.01
2013-8-31,96.0,75.2,55.7,56.4,52.1,42.1,86,50,18,29.99,29.78,11,0,11,0.00